sensor_id;sensor_type;location;lat;lon;timestamp;pressure;altitude;pressure_sealevel;temperature;humidity
44313;BME280;38833;51.142;-0.974;2023-12-20T00:02:08;100697.99;;;26.99;30.01
44313;BME280;38833;51.142;-0.974;2023-12-20T00:04:41;100703.83;;;27.16;29.84
44313;BME280;38833;51.142;-0.974;2023-12-20T00:07:15;100703.79;;;27.29;29.94
44313;BME280;38833;51.142;-0.974;2023-12-20T00:09:48;100701.55;;;26.96;29.95
44313;BME280;38833;51.142;-0.974;2023-12-20T00:12:22;100704.96;;;27.18;29.99
44313;BME280;38833;51.142;-0.974;2023-12-20T00:14:55;100700.33;;;27.46;29.89
44313;BME280;38833;51.142;-0.974;2023-12-20T00:17:28;100697.38;;;26.86;29.99
44313;BME280;38833;51.142;-0.974;2023-12-20T00:20:02;100691.60;;;27.16;30.14
44313;BME280;38833;51.142;-0.974;2023-12-20T00:22:35;100695.76;;;26.94;30.11
44313;BME280;38833;51.142;-0.974;2023-12-20T00:25:09;100690.01;;;26.90;30.14
44313;BME280;38833;51.142;-0.974;2023-12-20T00:27:42;100688.79;;;26.80;30.20
44313;BME280;38833;51.142;-0.974;2023-12-20T00:30:16;100682.66;;;26.86;30.08
44313;BME280;38833;51.142;-0.974;2023-12-20T00:32:49;100679.29;;;26.78;30.12
44313;BME280;38833;51.142;-0.974;2023-12-20T00:35:23;100676.73;;;26.79;30.07
44313;BME280;38833;51.142;-0.974;2023-12-20T00:37:56;100677.27;;;26.47;30.06
44313;BME280;38833;51.142;-0.974;2023-12-20T00:40:29;100674.18;;;26.86;30.17
44313;BME280;38833;51.142;-0.974;2023-12-20T00:43:03;100674.55;;;26.83;30.15
44313;BME280;38833;51.142;-0.974;2023-12-20T00:45:37;100678.12;;;26.76;30.17
44313;BME280;38833;51.142;-0.974;2023-12-20T00:48:10;100683.08;;;26.76;30.19
44313;BME280;38833;51.142;-0.974;2023-12-20T00:50:43;100676.23;;;26.22;30.19
44313;BME280;38833;51.142;-0.974;2023-12-20T00:53:17;100678.24;;;26.67;30.19
44313;BME280;38833;51.142;-0.974;2023-12-20T00:55:50;100676.27;;;26.49;30.33
44313;BME280;38833;51.142;-0.974;2023-12-20T00:58:23;100675.28;;;26.47;30.32
44313;BME280;38833;51.142;-0.974;2023-12-20T01:00:57;100674.86;;;26.49;30.25
44313;BME280;38833;51.142;-0.974;2023-12-20T01:03:30;100674.08;;;26.68;30.24
44313;BME280;38833;51.142;-0.974;2023-12-20T01:06:04;100675.19;;;26.52;30.16
44313;BME280;38833;51.142;-0.974;2023-12-20T01:08:37;100664.99;;;26.45;30.20
44313;BME280;38833;51.142;-0.974;2023-12-20T01:11:11;100661.79;;;26.35;30.28
44313;BME280;38833;51.142;-0.974;2023-12-20T01:13:44;100664.70;;;26.50;30.30
44313;BME280;38833;51.142;-0.974;2023-12-20T01:16:18;100673.97;;;26.50;30.27
44313;BME280;38833;51.142;-0.974;2023-12-20T01:18:51;100671.94;;;26.23;30.26
44313;BME280;38833;51.142;-0.974;2023-12-20T01:21:24;100666.73;;;26.39;30.33
44313;BME280;38833;51.142;-0.974;2023-12-20T01:23:58;100657.28;;;26.31;30.39
44313;BME280;38833;51.142;-0.974;2023-12-20T01:26:32;100650.74;;;26.19;30.27
44313;BME280;38833;51.142;-0.974;2023-12-20T01:29:05;100652.60;;;26.26;30.37
44313;BME280;38833;51.142;-0.974;2023-12-20T01:31:38;100652.80;;;25.94;30.45
44313;BME280;38833;51.142;-0.974;2023-12-20T01:34:12;100656.67;;;26.29;30.30
44313;BME280;38833;51.142;-0.974;2023-12-20T01:36:45;100653.97;;;26.46;30.34
44313;BME280;38833;51.142;-0.974;2023-12-20T01:39:18;100660.24;;;25.95;30.33
44313;BME280;38833;51.142;-0.974;2023-12-20T01:41:51;100669.85;;;26.09;30.40
44313;BME280;38833;51.142;-0.974;2023-12-20T01:44:25;100675.02;;;26.09;30.38
44313;BME280;38833;51.142;-0.974;2023-12-20T01:46:58;100668.80;;;26.06;30.36
44313;BME280;38833;51.142;-0.974;2023-12-20T01:49:33;100664.91;;;25.94;30.47
44313;BME280;38833;51.142;-0.974;2023-12-20T01:52:07;100662.76;;;26.30;30.37
44313;BME280;38833;51.142;-0.974;2023-12-20T01:54:42;100658.74;;;25.89;30.45
44313;BME280;38833;51.142;-0.974;2023-12-20T01:57:16;100657.35;;;25.90;30.43
44313;BME280;38833;51.142;-0.974;2023-12-20T01:59:49;100653.02;;;25.84;30.24
44313;BME280;38833;51.142;-0.974;2023-12-20T02:02:22;100656.60;;;25.61;29.87
44313;BME280;38833;51.142;-0.974;2023-12-20T02:04:56;100656.72;;;26.03;29.67
44313;BME280;38833;51.142;-0.974;2023-12-20T02:07:31;100656.04;;;26.38;29.51
44313;BME280;38833;51.142;-0.974;2023-12-20T02:10:05;100653.45;;;26.34;29.50
44313;BME280;38833;51.142;-0.974;2023-12-20T02:12:40;100651.92;;;26.09;29.74
44313;BME280;38833;51.142;-0.974;2023-12-20T02:15:13;100652.63;;;25.85;29.97
44313;BME280;38833;51.142;-0.974;2023-12-20T02:17:47;100654.60;;;25.93;30.13
44313;BME280;38833;51.142;-0.974;2023-12-20T02:20:20;100662.28;;;25.80;30.21
44313;BME280;38833;51.142;-0.974;2023-12-20T02:22:53;100665.49;;;25.65;30.39
44313;BME280;38833;51.142;-0.974;2023-12-20T02:25:27;100660.34;;;25.37;30.39
44313;BME280;38833;51.142;-0.974;2023-12-20T02:28:01;100658.51;;;25.85;30.38
44313;BME280;38833;51.142;-0.974;2023-12-20T02:30:34;100653.36;;;25.85;30.35
44313;BME280;38833;51.142;-0.974;2023-12-20T02:33:10;100650.11;;;25.50;30.42
44313;BME280;38833;51.142;-0.974;2023-12-20T02:35:45;100647.61;;;25.41;30.48
44313;BME280;38833;51.142;-0.974;2023-12-20T02:38:18;100653.26;;;25.62;30.50
44313;BME280;38833;51.142;-0.974;2023-12-20T02:40:51;100654.32;;;25.66;30.41
44313;BME280;38833;51.142;-0.974;2023-12-20T02:43:25;100656.86;;;25.60;30.50
44313;BME280;38833;51.142;-0.974;2023-12-20T02:45:58;100656.79;;;25.53;30.51
44313;BME280;38833;51.142;-0.974;2023-12-20T02:48:32;100652.15;;;25.51;30.50
44313;BME280;38833;51.142;-0.974;2023-12-20T02:51:05;100650.47;;;25.49;30.50
44313;BME280;38833;51.142;-0.974;2023-12-20T02:53:38;100636.48;;;25.46;30.49
44313;BME280;38833;51.142;-0.974;2023-12-20T02:56:12;100623.77;;;25.39;30.54
44313;BME280;38833;51.142;-0.974;2023-12-20T02:58:45;100628.23;;;25.37;30.54
44313;BME280;38833;51.142;-0.974;2023-12-20T03:01:19;100632.18;;;25.28;30.59
44313;BME280;38833;51.142;-0.974;2023-12-20T03:03:52;100631.37;;;25.17;30.70
44313;BME280;38833;51.142;-0.974;2023-12-20T03:06:25;100632.71;;;25.23;30.62
44313;BME280;38833;51.142;-0.974;2023-12-20T03:08:58;100619.19;;;25.08;30.72
44313;BME280;38833;51.142;-0.974;2023-12-20T03:11:32;100611.55;;;25.34;30.65
44313;BME280;38833;51.142;-0.974;2023-12-20T03:14:05;100610.57;;;25.13;30.63
44313;BME280;38833;51.142;-0.974;2023-12-20T03:16:38;100617.30;;;25.10;30.64
44313;BME280;38833;51.142;-0.974;2023-12-20T03:19:12;100615.72;;;25.01;30.70
44313;BME280;38833;51.142;-0.974;2023-12-20T03:21:46;100610.57;;;24.99;30.68
44313;BME280;38833;51.142;-0.974;2023-12-20T03:24:19;100610.16;;;25.18;30.69
44313;BME280;38833;51.142;-0.974;2023-12-20T03:26:52;100608.05;;;24.97;30.66
44313;BME280;38833;51.142;-0.974;2023-12-20T03:29:26;100610.74;;;25.14;30.70
44313;BME280;38833;51.142;-0.974;2023-12-20T03:32:00;100621.26;;;25.05;30.75
44313;BME280;38833;51.142;-0.974;2023-12-20T03:34:33;100623.37;;;25.10;30.68
44313;BME280;38833;51.142;-0.974;2023-12-20T03:37:07;100627.10;;;24.95;30.78
44313;BME280;38833;51.142;-0.974;2023-12-20T03:39:40;100625.91;;;24.80;30.74
44313;BME280;38833;51.142;-0.974;2023-12-20T03:42:14;100624.48;;;24.98;30.77
44313;BME280;38833;51.142;-0.974;2023-12-20T03:44:47;100630.17;;;24.98;30.71
44313;BME280;38833;51.142;-0.974;2023-12-20T03:47:21;100631.18;;;24.98;30.71
44313;BME280;38833;51.142;-0.974;2023-12-20T03:49:54;100633.74;;;24.63;30.80
44313;BME280;38833;51.142;-0.974;2023-12-20T03:52:27;100641.07;;;24.81;30.79
44313;BME280;38833;51.142;-0.974;2023-12-20T03:55:01;100641.95;;;24.67;30.72
44313;BME280;38833;51.142;-0.974;2023-12-20T03:57:34;100643.21;;;24.85;30.74
44313;BME280;38833;51.142;-0.974;2023-12-20T04:00:08;100639.85;;;24.96;30.84
44313;BME280;38833;51.142;-0.974;2023-12-20T04:02:42;100639.99;;;25.07;30.72
44313;BME280;38833;51.142;-0.974;2023-12-20T04:05:16;100631.56;;;24.69;30.82
44313;BME280;38833;51.142;-0.974;2023-12-20T04:07:49;100634.61;;;24.62;30.91
44313;BME280;38833;51.142;-0.974;2023-12-20T04:10:22;100626.00;;;24.63;30.84
44313;BME280;38833;51.142;-0.974;2023-12-20T04:12:56;100624.53;;;24.87;30.81
44313;BME280;38833;51.142;-0.974;2023-12-20T04:15:29;100629.63;;;24.79;30.86
44313;BME280;38833;51.142;-0.974;2023-12-20T04:18:03;100632.13;;;24.50;30.92
44313;BME280;38833;51.142;-0.974;2023-12-20T04:20:36;100625.50;;;24.33;30.80
44313;BME280;38833;51.142;-0.974;2023-12-20T04:23:10;100619.00;;;24.74;30.84
44313;BME280;38833;51.142;-0.974;2023-12-20T04:25:44;100614.10;;;24.79;30.81
44313;BME280;38833;51.142;-0.974;2023-12-20T04:28:17;100614.75;;;24.41;30.92
44313;BME280;38833;51.142;-0.974;2023-12-20T04:30:50;100610.78;;;24.50;30.85
44313;BME280;38833;51.142;-0.974;2023-12-20T04:33:23;100609.65;;;24.58;30.96
44313;BME280;38833;51.142;-0.974;2023-12-20T04:35:57;100607.59;;;24.36;30.90
44313;BME280;38833;51.142;-0.974;2023-12-20T04:38:30;100604.57;;;24.42;30.84
44313;BME280;38833;51.142;-0.974;2023-12-20T04:41:04;100605.82;;;24.58;30.86
44313;BME280;38833;51.142;-0.974;2023-12-20T04:43:37;100602.75;;;24.59;30.84
44313;BME280;38833;51.142;-0.974;2023-12-20T04:46:10;100597.03;;;24.48;30.92
44313;BME280;38833;51.142;-0.974;2023-12-20T04:48:44;100602.94;;;24.47;30.89
44313;BME280;38833;51.142;-0.974;2023-12-20T04:51:17;100610.13;;;24.14;31.01
44313;BME280;38833;51.142;-0.974;2023-12-20T04:53:50;100615.12;;;24.45;30.87
44313;BME280;38833;51.142;-0.974;2023-12-20T04:56:24;100626.74;;;24.50;30.81
44313;BME280;38833;51.142;-0.974;2023-12-20T04:58:57;100622.70;;;24.56;30.70
44313;BME280;38833;51.142;-0.974;2023-12-20T05:01:31;100628.37;;;24.51;30.74
44313;BME280;38833;51.142;-0.974;2023-12-20T05:04:04;100624.93;;;24.19;30.80
44313;BME280;38833;51.142;-0.974;2023-12-20T05:06:38;100622.68;;;24.37;30.84
44313;BME280;38833;51.142;-0.974;2023-12-20T05:09:11;100625.87;;;24.46;30.72
44313;BME280;38833;51.142;-0.974;2023-12-20T05:11:44;100634.72;;;24.52;30.69
44313;BME280;38833;51.142;-0.974;2023-12-20T05:14:17;100633.58;;;24.36;30.79
44313;BME280;38833;51.142;-0.974;2023-12-20T05:16:51;100642.55;;;24.34;30.81
44313;BME280;38833;51.142;-0.974;2023-12-20T05:19:24;100643.46;;;24.30;30.83
44313;BME280;38833;51.142;-0.974;2023-12-20T05:21:58;100636.87;;;24.44;30.95
44313;BME280;38833;51.142;-0.974;2023-12-20T05:24:31;100638.49;;;24.14;30.96
44313;BME280;38833;51.142;-0.974;2023-12-20T05:27:04;100632.95;;;24.32;31.02
44313;BME280;38833;51.142;-0.974;2023-12-20T05:29:38;100633.85;;;23.98;31.10
44313;BME280;38833;51.142;-0.974;2023-12-20T05:32:11;100625.61;;;24.09;30.95
44313;BME280;38833;51.142;-0.974;2023-12-20T05:34:45;100608.38;;;24.01;31.03
44313;BME280;38833;51.142;-0.974;2023-12-20T05:37:18;100597.20;;;24.07;30.96
44313;BME280;38833;51.142;-0.974;2023-12-20T05:39:51;100590.55;;;23.95;31.01
44313;BME280;38833;51.142;-0.974;2023-12-20T05:42:25;100590.87;;;24.11;30.89
44313;BME280;38833;51.142;-0.974;2023-12-20T05:44:58;100593.69;;;23.60;31.55
44313;BME280;38833;51.142;-0.974;2023-12-20T05:47:31;100584.10;;;24.17;31.29
44313;BME280;38833;51.142;-0.974;2023-12-20T05:50:06;100581.39;;;24.06;31.12
44313;BME280;38833;51.142;-0.974;2023-12-20T05:52:39;100576.95;;;24.41;31.11
44313;BME280;38833;51.142;-0.974;2023-12-20T05:55:12;100572.20;;;24.70;31.19
44313;BME280;38833;51.142;-0.974;2023-12-20T05:57:46;100566.13;;;24.49;31.22
44313;BME280;38833;51.142;-0.974;2023-12-20T06:00:19;100560.43;;;24.33;31.17
44313;BME280;38833;51.142;-0.974;2023-12-20T06:02:53;100560.27;;;24.83;31.05
44313;BME280;38833;51.142;-0.974;2023-12-20T06:05:26;100558.04;;;24.74;30.88
44313;BME280;38833;51.142;-0.974;2023-12-20T06:07:59;100555.02;;;24.60;31.10
44313;BME280;38833;51.142;-0.974;2023-12-20T06:10:33;100554.29;;;25.04;30.77
44313;BME280;38833;51.142;-0.974;2023-12-20T06:13:06;100558.48;;;25.11;30.73
44313;BME280;38833;51.142;-0.974;2023-12-20T06:15:40;100557.50;;;24.67;30.80
44313;BME280;38833;51.142;-0.974;2023-12-20T06:18:13;100549.57;;;25.52;30.44
44313;BME280;38833;51.142;-0.974;2023-12-20T06:20:46;100562.37;;;25.47;30.32
44313;BME280;38833;51.142;-0.974;2023-12-20T06:23:20;100570.89;;;25.27;30.37
44313;BME280;38833;51.142;-0.974;2023-12-20T06:25:53;100571.14;;;25.49;30.20
44313;BME280;38833;51.142;-0.974;2023-12-20T06:28:26;100570.75;;;25.74;29.99
44313;BME280;38833;51.142;-0.974;2023-12-20T06:30:59;100560.47;;;25.45;30.10
44313;BME280;38833;51.142;-0.974;2023-12-20T06:33:34;100551.20;;;25.77;30.06
44313;BME280;38833;51.142;-0.974;2023-12-20T06:36:07;100563.01;;;25.99;29.62
44313;BME280;38833;51.142;-0.974;2023-12-20T06:38:44;100565.42;;;25.69;29.75
44313;BME280;38833;51.142;-0.974;2023-12-20T06:41:17;100571.37;;;26.03;29.68
44313;BME280;38833;51.142;-0.974;2023-12-20T06:43:50;100570.44;;;26.38;29.39
44313;BME280;38833;51.142;-0.974;2023-12-20T06:46:24;100573.84;;;26.21;29.38
44313;BME280;38833;51.142;-0.974;2023-12-20T06:48:57;100576.20;;;26.11;29.50
44313;BME280;38833;51.142;-0.974;2023-12-20T06:51:31;100580.67;;;26.52;29.38
44313;BME280;38833;51.142;-0.974;2023-12-20T06:54:04;100578.22;;;26.48;29.44
44313;BME280;38833;51.142;-0.974;2023-12-20T06:56:37;100575.40;;;26.77;29.20
44313;BME280;38833;51.142;-0.974;2023-12-20T06:59:11;100569.72;;;26.18;29.57
44313;BME280;38833;51.142;-0.974;2023-12-20T07:01:48;100573.31;;;26.50;29.32
44313;BME280;38833;51.142;-0.974;2023-12-20T07:04:21;100573.31;;;26.87;29.01
44313;BME280;38833;51.142;-0.974;2023-12-20T07:06:54;100576.21;;;26.68;29.20
44313;BME280;38833;51.142;-0.974;2023-12-20T07:09:28;100583.27;;;26.66;29.06
44313;BME280;38833;51.142;-0.974;2023-12-20T07:12:02;100581.50;;;27.13;28.81
44313;BME280;38833;51.142;-0.974;2023-12-20T07:14:35;100572.92;;;27.08;28.91
44313;BME280;38833;51.142;-0.974;2023-12-20T07:17:08;100570.47;;;26.48;29.30
44313;BME280;38833;51.142;-0.974;2023-12-20T07:19:42;100574.61;;;26.60;28.96
44313;BME280;38833;51.142;-0.974;2023-12-20T07:22:15;100576.49;;;27.26;28.80
44313;BME280;38833;51.142;-0.974;2023-12-20T07:24:49;100567.52;;;26.52;29.29
44313;BME280;38833;51.142;-0.974;2023-12-20T07:27:22;100554.66;;;26.66;28.95
44313;BME280;38833;51.142;-0.974;2023-12-20T07:29:55;100544.03;;;26.86;29.02
44313;BME280;38833;51.142;-0.974;2023-12-20T07:32:29;100533.92;;;26.84;29.50
44313;BME280;38833;51.142;-0.974;2023-12-20T07:35:02;100532.90;;;26.96;28.99
44313;BME280;38833;51.142;-0.974;2023-12-20T07:37:36;100531.08;;;27.06;28.90
44313;BME280;38833;51.142;-0.974;2023-12-20T07:40:10;100523.53;;;26.00;29.70
44313;BME280;38833;51.142;-0.974;2023-12-20T07:42:43;100530.32;;;26.41;29.30
44313;BME280;38833;51.142;-0.974;2023-12-20T07:45:16;100536.12;;;26.65;29.10
44313;BME280;38833;51.142;-0.974;2023-12-20T07:47:50;100531.41;;;27.14;28.90
44313;BME280;38833;51.142;-0.974;2023-12-20T07:50:23;100539.73;;;26.92;29.12
44313;BME280;38833;51.142;-0.974;2023-12-20T07:52:56;100548.68;;;27.23;29.05
44313;BME280;38833;51.142;-0.974;2023-12-20T07:55:29;100553.63;;;26.31;29.45
44313;BME280;38833;51.142;-0.974;2023-12-20T07:58:03;100556.24;;;27.34;28.99
44313;BME280;38833;51.142;-0.974;2023-12-20T08:00:36;100566.29;;;26.89;29.17
44313;BME280;38833;51.142;-0.974;2023-12-20T08:03:10;100569.71;;;26.58;29.27
44313;BME280;38833;51.142;-0.974;2023-12-20T08:05:43;100569.07;;;27.01;28.86
44313;BME280;38833;51.142;-0.974;2023-12-20T08:08:16;100567.36;;;26.89;28.99
44313;BME280;38833;51.142;-0.974;2023-12-20T08:10:50;100573.96;;;26.42;29.45
44313;BME280;38833;51.142;-0.974;2023-12-20T08:13:24;100578.09;;;26.51;29.40
44313;BME280;38833;51.142;-0.974;2023-12-20T08:15:57;100583.55;;;27.10;29.31
44313;BME280;38833;51.142;-0.974;2023-12-20T08:18:30;100580.64;;;26.40;29.49
44313;BME280;38833;51.142;-0.974;2023-12-20T08:21:04;100583.59;;;26.82;29.31
44313;BME280;38833;51.142;-0.974;2023-12-20T08:23:37;100586.61;;;26.76;29.43
44313;BME280;38833;51.142;-0.974;2023-12-20T08:26:10;100577.86;;;26.59;29.34
44313;BME280;38833;51.142;-0.974;2023-12-20T08:28:44;100588.17;;;26.81;29.35
44313;BME280;38833;51.142;-0.974;2023-12-20T08:31:18;100594.70;;;26.82;29.33
44313;BME280;38833;51.142;-0.974;2023-12-20T08:33:52;100586.28;;;26.42;29.47
44313;BME280;38833;51.142;-0.974;2023-12-20T08:36:26;100597.37;;;26.35;29.51
44313;BME280;38833;51.142;-0.974;2023-12-20T08:38:59;100607.72;;;27.03;29.10
44313;BME280;38833;51.142;-0.974;2023-12-20T08:41:32;100612.65;;;26.82;29.04
44313;BME280;38833;51.142;-0.974;2023-12-20T08:44:05;100603.58;;;27.37;28.93
44313;BME280;38833;51.142;-0.974;2023-12-20T08:46:39;100605.08;;;27.39;28.89
44313;BME280;38833;51.142;-0.974;2023-12-20T08:49:12;100600.71;;;27.02;28.75
44313;BME280;38833;51.142;-0.974;2023-12-20T08:51:46;100596.54;;;27.57;28.63
44313;BME280;38833;51.142;-0.974;2023-12-20T08:54:19;100592.93;;;27.34;28.60
44313;BME280;38833;51.142;-0.974;2023-12-20T08:56:53;100590.03;;;26.92;28.77
44313;BME280;38833;51.142;-0.974;2023-12-20T08:59:26;100585.82;;;27.44;28.72
44313;BME280;38833;51.142;-0.974;2023-12-20T09:01:59;100590.94;;;27.19;28.94
44313;BME280;38833;51.142;-0.974;2023-12-20T09:04:33;100593.42;;;27.31;28.80
44313;BME280;38833;51.142;-0.974;2023-12-20T09:07:07;100588.08;;;27.14;28.96
44313;BME280;38833;51.142;-0.974;2023-12-20T09:09:40;100576.51;;;26.93;28.91
44313;BME280;38833;51.142;-0.974;2023-12-20T09:12:13;100568.80;;;26.76;29.07
44313;BME280;38833;51.142;-0.974;2023-12-20T09:14:48;100568.00;;;26.88;29.14
44313;BME280;38833;51.142;-0.974;2023-12-20T09:17:22;100559.02;;;27.35;28.89
44313;BME280;38833;51.142;-0.974;2023-12-20T09:19:55;100559.30;;;26.80;29.23
44313;BME280;38833;51.142;-0.974;2023-12-20T09:22:28;100557.79;;;26.77;29.31
44313;BME280;38833;51.142;-0.974;2023-12-20T09:25:02;100556.76;;;26.75;29.92
44313;BME280;38833;51.142;-0.974;2023-12-20T09:27:35;100553.62;;;26.96;30.00
44313;BME280;38833;51.142;-0.974;2023-12-20T09:30:09;100545.33;;;26.72;29.92
44313;BME280;38833;51.142;-0.974;2023-12-20T09:32:42;100549.23;;;26.77;29.86
44313;BME280;38833;51.142;-0.974;2023-12-20T09:35:16;100552.57;;;26.79;29.70
44313;BME280;38833;51.142;-0.974;2023-12-20T09:37:50;100561.19;;;26.84;29.95
44313;BME280;38833;51.142;-0.974;2023-12-20T09:40:26;100566.00;;;26.52;29.94
44313;BME280;38833;51.142;-0.974;2023-12-20T09:43:04;100573.60;;;26.76;30.14
44313;BME280;38833;51.142;-0.974;2023-12-20T09:45:42;100572.94;;;26.68;29.99
44313;BME280;38833;51.142;-0.974;2023-12-20T09:48:18;100585.21;;;26.67;30.14
44313;BME280;38833;51.142;-0.974;2023-12-20T09:50:52;100591.63;;;26.59;30.00
44313;BME280;38833;51.142;-0.974;2023-12-20T09:53:26;100593.27;;;26.53;30.03
44313;BME280;38833;51.142;-0.974;2023-12-20T09:56:03;100587.69;;;26.67;30.11
44313;BME280;38833;51.142;-0.974;2023-12-20T09:58:37;100584.51;;;26.54;30.20
44313;BME280;38833;51.142;-0.974;2023-12-20T10:01:11;100587.20;;;26.91;30.26
44313;BME280;38833;51.142;-0.974;2023-12-20T10:03:44;100586.15;;;26.38;29.89
44313;BME280;38833;51.142;-0.974;2023-12-20T10:06:18;100578.10;;;26.48;29.84
44313;BME280;38833;51.142;-0.974;2023-12-20T10:08:52;100577.06;;;26.17;30.08
44313;BME280;38833;51.142;-0.974;2023-12-20T10:11:26;100582.61;;;26.19;29.73
44313;BME280;38833;51.142;-0.974;2023-12-20T10:14:00;100586.83;;;26.59;29.78
44313;BME280;38833;51.142;-0.974;2023-12-20T10:16:34;100579.92;;;26.58;29.86
44313;BME280;38833;51.142;-0.974;2023-12-20T10:19:07;100584.46;;;26.27;29.83
44313;BME280;38833;51.142;-0.974;2023-12-20T10:21:41;100589.76;;;26.47;29.85
44313;BME280;38833;51.142;-0.974;2023-12-20T10:24:17;100581.16;;;26.40;29.89
44313;BME280;38833;51.142;-0.974;2023-12-20T10:27:02;100577.42;;;26.45;29.88
44313;BME280;38833;51.142;-0.974;2023-12-20T10:29:36;100588.29;;;26.51;29.77
44313;BME280;38833;51.142;-0.974;2023-12-20T10:32:27;100593.95;;;26.27;29.78
44313;BME280;38833;51.142;-0.974;2023-12-20T10:35:00;100594.91;;;26.19;29.78
44313;BME280;38833;51.142;-0.974;2023-12-20T10:37:35;100588.49;;;26.18;29.83
44313;BME280;38833;51.142;-0.974;2023-12-20T10:40:09;100590.60;;;26.36;29.88
44313;BME280;38833;51.142;-0.974;2023-12-20T10:42:43;100574.73;;;25.99;29.93
44313;BME280;38833;51.142;-0.974;2023-12-20T10:45:17;100577.88;;;26.38;29.97
44313;BME280;38833;51.142;-0.974;2023-12-20T10:47:50;100572.91;;;26.53;29.71
44313;BME280;38833;51.142;-0.974;2023-12-20T10:50:24;100575.34;;;26.50;29.89
44313;BME280;38833;51.142;-0.974;2023-12-20T10:52:58;100580.84;;;26.54;29.73
44313;BME280;38833;51.142;-0.974;2023-12-20T10:55:31;100581.11;;;26.30;29.58
44313;BME280;38833;51.142;-0.974;2023-12-20T10:58:07;100573.22;;;26.12;29.64
44313;BME280;38833;51.142;-0.974;2023-12-20T11:00:41;100570.35;;;26.38;29.59
44313;BME280;38833;51.142;-0.974;2023-12-20T11:03:18;100565.10;;;26.23;29.71
44313;BME280;38833;51.142;-0.974;2023-12-20T11:06:00;100553.28;;;26.08;29.53
44313;BME280;38833;51.142;-0.974;2023-12-20T11:08:42;100540.55;;;26.14;29.36
44313;BME280;38833;51.142;-0.974;2023-12-20T11:11:25;100526.97;;;26.09;29.42
44313;BME280;38833;51.142;-0.974;2023-12-20T11:14:05;100522.54;;;26.49;29.62
44313;BME280;38833;51.142;-0.974;2023-12-20T11:16:41;100521.57;;;26.54;29.71
44313;BME280;38833;51.142;-0.974;2023-12-20T11:19:14;100518.20;;;26.27;29.73
44313;BME280;38833;51.142;-0.974;2023-12-20T11:21:48;100503.99;;;26.26;29.66
44313;BME280;38833;51.142;-0.974;2023-12-20T11:24:22;100485.56;;;26.08;29.51
44313;BME280;38833;51.142;-0.974;2023-12-20T11:26:57;100477.17;;;26.29;29.52
44313;BME280;38833;51.142;-0.974;2023-12-20T11:29:31;100484.28;;;26.21;29.58
44313;BME280;38833;51.142;-0.974;2023-12-20T11:32:29;100471.87;;;25.81;29.66
44313;BME280;38833;51.142;-0.974;2023-12-20T11:35:18;100473.32;;;26.09;29.63
44313;BME280;38833;51.142;-0.974;2023-12-20T11:37:51;100460.34;;;26.11;29.66
44313;BME280;38833;51.142;-0.974;2023-12-20T11:40:25;100456.57;;;26.09;29.75
44313;BME280;38833;51.142;-0.974;2023-12-20T11:42:58;100449.44;;;26.07;29.78
44313;BME280;38833;51.142;-0.974;2023-12-20T11:45:32;100455.32;;;25.87;29.80
44313;BME280;38833;51.142;-0.974;2023-12-20T11:48:06;100438.60;;;25.98;29.70
44313;BME280;38833;51.142;-0.974;2023-12-20T11:50:40;100432.69;;;25.94;29.68
44313;BME280;38833;51.142;-0.974;2023-12-20T11:53:13;100446.38;;;25.92;29.63
44313;BME280;38833;51.142;-0.974;2023-12-20T11:55:48;100452.41;;;25.85;29.76
44313;BME280;38833;51.142;-0.974;2023-12-20T11:58:21;100450.93;;;25.75;29.90
44313;BME280;38833;51.142;-0.974;2023-12-20T12:00:55;100451.04;;;25.70;29.95
44313;BME280;38833;51.142;-0.974;2023-12-20T12:03:29;100450.71;;;25.69;29.95
44313;BME280;38833;51.142;-0.974;2023-12-20T12:06:02;100442.35;;;25.62;30.02
44313;BME280;38833;51.142;-0.974;2023-12-20T12:08:36;100448.96;;;25.86;30.01
44313;BME280;38833;51.142;-0.974;2023-12-20T12:11:10;100447.07;;;25.68;29.95
44313;BME280;38833;51.142;-0.974;2023-12-20T12:13:44;100440.44;;;25.60;30.07
44313;BME280;38833;51.142;-0.974;2023-12-20T12:16:18;100428.56;;;25.79;30.00
44313;BME280;38833;51.142;-0.974;2023-12-20T12:18:56;100432.12;;;25.84;29.82
44313;BME280;38833;51.142;-0.974;2023-12-20T12:21:30;100432.52;;;25.68;29.98
44313;BME280;38833;51.142;-0.974;2023-12-20T12:24:07;100426.69;;;25.81;29.86
44313;BME280;38833;51.142;-0.974;2023-12-20T12:26:41;100423.60;;;25.58;29.87
44313;BME280;38833;51.142;-0.974;2023-12-20T12:29:14;100419.93;;;25.72;30.12
44313;BME280;38833;51.142;-0.974;2023-12-20T12:31:47;100424.95;;;26.02;29.70
44313;BME280;38833;51.142;-0.974;2023-12-20T12:34:21;100413.95;;;26.30;29.99
44313;BME280;38833;51.142;-0.974;2023-12-20T12:36:55;100413.63;;;25.62;29.96
44313;BME280;38833;51.142;-0.974;2023-12-20T12:39:29;100399.88;;;25.81;30.54
44313;BME280;38833;51.142;-0.974;2023-12-20T12:42:04;100389.61;;;25.79;30.67
44313;BME280;38833;51.142;-0.974;2023-12-20T12:44:38;100377.40;;;25.36;30.88
44313;BME280;38833;51.142;-0.974;2023-12-20T12:47:12;100359.05;;;24.96;31.43
44313;BME280;38833;51.142;-0.974;2023-12-20T12:49:45;100349.51;;;25.30;31.33
44313;BME280;38833;51.142;-0.974;2023-12-20T12:52:19;100334.69;;;25.19;31.48
44313;BME280;38833;51.142;-0.974;2023-12-20T12:54:52;100330.28;;;24.40;32.14
44313;BME280;38833;51.142;-0.974;2023-12-20T12:57:26;100320.44;;;24.49;32.17
44313;BME280;38833;51.142;-0.974;2023-12-20T12:59:59;100324.87;;;24.90;32.12
44313;BME280;38833;51.142;-0.974;2023-12-20T13:02:33;100329.86;;;24.75;32.27
44313;BME280;38833;51.142;-0.974;2023-12-20T13:05:07;100328.16;;;24.64;32.40
44313;BME280;38833;51.142;-0.974;2023-12-20T13:07:41;100328.16;;;24.73;32.39
44313;BME280;38833;51.142;-0.974;2023-12-20T13:10:14;100329.40;;;24.24;32.49
44313;BME280;38833;51.142;-0.974;2023-12-20T13:12:48;100320.79;;;24.78;32.46
44313;BME280;38833;51.142;-0.974;2023-12-20T13:15:21;100307.03;;;25.18;32.21